Meridian Naval Air Station
KNMM : now visible

Airfield :











YOU CAN JOIN US ON...

 
LOGIN :

Register | Disclaimer

   EN    FR    IT 

 









Legend :    VFR   Marginal VFR   IFR   Intensive IFR   Very Intensive IFR
Visi :
Ceiling :
>= 8 km
>= 3000ft
5 to 8 km
1000 to 3000 ft
1500m to 5 km
500 to 1000 ft
800 to 1500m
200 to 500 ft
< 800m
< 200 ft
Symbols :   Thunderstorms  Fog  Heavy snow  Heavy precipitations  Wind > 20 kt






- Airport Elevation : 316 ft


KNMM - Meridian Naval Air Station

CURRENT METAR :
  • 100656Z AUTO 27005KT 10SM BKN070 OVC085 16/11 A2994 RMK AO2 SLP146 T01610106 $

EXPIRED METARs :
  • 100556Z AUTO 26004KT 10SM BKN065 17/11 A2992 RMK AO2 SLP141 T01670106 10211 20167 402560167 53012
  • 100456Z 32003KT 10SM SCT060 OVC150 17/10 A2991 RMK AO2 SLP137 T01720100

TAF TAF KNMM
Valid from the 09 at 23:00 until the 10 at 23:00 UTC


0923/1023 36006KT 9999 FEW180 BKN210 BKN280 QNH2982INS
FM100300 34006KT 9999 SCT070 BKN160 OVC250 621609 541809 542709 543606 QNH2984INS
FM100700 33008KT 9000 -RA SCT045 BKN085 OVC120 651209 622104 541809 542709 543606 QNH2989INS
FM101100 35011KT 9999 FEW070 SCT150 BKN250 600000 510003 551809 552709 QNH2998INS
FM101500 01015G23KT 9999 SCT300 510003 551809 552709 QNH3001INS
FM102200 02009KT 9999 SKC 500000 QNH3002INS AUTOMATED SENSOR METWATCH 1005 TIL 1012 T09/1012Z T20/1021Z FN20037



MET'MAP, your aeronautical weather chart ! - Copyright ORBIFLY December 2007 - Disclaimer

ORBIFLY MET'MAP TEAM :

Programming & Development : Alexandra Zaïnal
Concept & original design : Baudouin d'Aumeries
Assistance for programming : Marc-Olivier Méhu
Technical & hardware support : Manuel Goepfert

Contact : metmap@orbifly.com




SOURCES & CREDITS :

   NOAA       Earth
Advisory